メインページ
METAR-TAF:

METAR-TAF

空港 :

バンギ, 中央アフリカ共和国

バンギ・ムポコ国際空港

緯度: 04-24N, 経度: 018-31E, 海抜: 365m

現時点の気象観測

当レポートは27分前の01:00(UTC)に作成
北/北西の風 3kt
気温 19°C
湿度 88%
気圧 1009 hPa
視程10km以上
1,500メートル以下は雲なし、積乱雲なし

METAR: FEFF 180100Z 34003KT CAVOK 19/17 Q1009 NOSIG

時間: 02:27 (01:27 UTC)

予報

当レポートは2時間27分前の23:00(UTC)に作成
予報は18日の 00時(UTC)から 19日の 06時(UTC)まで有効
変向風 2kt
視程: 7000m
18日の 04時(UTC)から 18日の 05時(UTC)まで徐々に
視程: 3000m
18日の 08時(UTC)から 18日の 09時(UTC)まで徐々に
視程10km以上
1,500メートル以下は雲なし、積乱雲なし

TAF: FEFF 172300Z 1800/1906 VRB02KT 7000 NSC BECMG 1804/1805 3000 BR BECMG 1808/1809 CAVOK

4,000以上の空港の気象観測と天気予報(METAR報とTAF報)

利用可能な観測所は地図上に黄色い丸と赤い丸で示す。

丸の上にカーソルを重ねると観測所名を参照できる。

次にクリックすると気象観測と天気予報を参照できる。

マップの切り替え:黒色「×」印の緑ボタンをクリックして拡大、「-」印の緑ボタンをクリックして縮小、緑色の三角印をクリックして隣りの地図に切り替え


METAR-TAF: